createdAt,value
2018-06-30T00:01:08.135Z,42.40
2018-06-30T00:03:41.985Z,34.37
2018-06-30T00:06:10.101Z,27.83
2018-06-30T00:08:38.585Z,32.50
2018-06-30T00:11:06.702Z,31.87
2018-06-30T00:13:35.251Z,35.40
2018-06-30T00:16:03.477Z,30.67
2018-06-30T00:18:31.917Z,34.97
2018-06-30T00:21:00.029Z,31.87
2018-06-30T00:23:28.190Z,37.10
2018-06-30T00:25:56.610Z,28.33
2018-06-30T00:28:25.074Z,41.73
2018-06-30T00:30:53.190Z,32.20
2018-06-30T00:33:21.330Z,33.73
2018-06-30T00:35:49.769Z,32.50
2018-06-30T00:38:18.249Z,34.93
2018-06-30T00:40:46.710Z,32.77
2018-06-30T00:43:15.170Z,36.40
2018-06-30T00:45:43.650Z,33.43
2018-06-30T00:48:12.144Z,32.03
2018-06-30T00:50:40.284Z,39.77
2018-06-30T00:53:08.404Z,29.57
2018-06-30T00:55:36.852Z,29.00
2018-06-30T00:58:05.348Z,25.20
2018-06-30T01:00:33.591Z,30.37
2018-06-30T01:03:01.706Z,31.10
2018-06-30T01:05:30.221Z,31.83
2018-06-30T01:07:58.686Z,38.30
2018-06-30T01:10:27.174Z,42.57
2018-06-30T01:12:55.646Z,37.80
2018-06-30T01:15:24.178Z,37.20
2018-06-30T01:17:52.297Z,36.40
2018-06-30T01:20:20.452Z,29.57
2018-06-30T01:22:48.675Z,35.80
2018-06-30T01:25:16.776Z,37.20
2018-06-30T01:27:44.889Z,26.57
2018-06-30T01:30:13.155Z,34.53
2018-06-30T01:32:42.057Z,28.13
2018-06-30T01:35:10.897Z,25.77
2018-06-30T01:37:40.022Z,30.93
2018-06-30T01:40:08.249Z,29.87
2018-06-30T01:42:36.908Z,30.77
2018-06-30T01:45:06.093Z,28.00
2018-06-30T01:47:34.528Z,29.50
2018-06-30T01:50:03.072Z,27.97
2018-06-30T01:52:31.205Z,26.57
2018-06-30T01:54:59.654Z,29.20
2018-06-30T01:57:27.778Z,28.17
2018-06-30T01:59:56.212Z,25.13
2018-06-30T02:02:24.716Z,41.53
2018-06-30T02:04:53.157Z,30.40
2018-06-30T02:07:21.282Z,27.53
2018-06-30T02:09:49.752Z,30.83
2018-06-30T02:12:17.876Z,24.07
2018-06-30T02:14:46.010Z,24.73
2018-06-30T02:17:14.118Z,31.10
2018-06-30T02:19:42.220Z,24.93
2018-06-30T02:22:10.661Z,29.27
2018-06-30T02:24:38.848Z,30.10
2018-06-30T02:27:07.367Z,30.33
2018-06-30T02:29:35.819Z,27.97
2018-06-30T02:32:04.254Z,30.70
2018-06-30T02:34:32.680Z,25.50
2018-06-30T02:37:01.158Z,31.13
2018-06-30T02:39:29.632Z,25.70
2018-06-30T02:41:58.104Z,31.90
2018-06-30T02:44:26.266Z,29.60
2018-06-30T02:46:54.803Z,27.20
2018-06-30T02:49:22.930Z,25.73
2018-06-30T02:51:51.127Z,26.00
2018-06-30T02:54:21.981Z,21.00
2018-06-30T02:56:50.147Z,25.40
2018-06-30T02:59:18.303Z,31.50
2018-06-30T03:01:46.410Z,28.30
2018-06-30T03:04:14.568Z,28.07
2018-06-30T03:06:43.049Z,33.13
2018-06-30T03:09:11.407Z,26.97
2018-06-30T03:11:40.264Z,24.50
2018-06-30T03:14:08.719Z,26.73
2018-06-30T03:16:36.847Z,20.67
2018-06-30T03:19:05.291Z,22.80
2018-06-30T03:21:33.439Z,19.47
2018-06-30T03:24:01.543Z,18.20
2018-06-30T03:26:29.689Z,22.43
2018-06-30T03:28:57.946Z,30.77
2018-06-30T03:31:26.127Z,36.17
2018-06-30T03:33:54.197Z,23.60
2018-06-30T03:36:23.041Z,18.83
2018-06-30T03:38:51.181Z,26.50
2018-06-30T03:41:19.767Z,28.53
2018-06-30T03:43:48.179Z,21.60
2018-06-30T03:46:16.357Z,28.20
2018-06-30T03:48:44.485Z,25.20
2018-06-30T03:51:13.011Z,24.93
2018-06-30T03:53:41.148Z,22.90
2018-06-30T03:56:09.273Z,20.13
2018-06-30T03:58:37.407Z,23.73
2018-06-30T04:01:05.707Z,23.27
2018-06-30T04:03:34.222Z,20.43
2018-06-30T04:06:02.754Z,19.23
2018-06-30T04:08:31.234Z,32.20
2018-06-30T04:10:59.682Z,22.97
2018-06-30T04:13:27.803Z,32.97
2018-06-30T04:15:56.283Z,24.77
2018-06-30T04:18:24.755Z,29.40
2018-06-30T04:20:53.453Z,30.17
2018-06-30T04:23:21.641Z,28.03
2018-06-30T04:25:50.118Z,26.00
2018-06-30T04:28:18.428Z,24.43
2018-06-30T04:30:46.949Z,29.00
2018-06-30T04:33:15.239Z,21.80
2018-06-30T04:35:43.455Z,22.20
2018-06-30T04:38:11.910Z,25.90
2018-06-30T04:40:40.590Z,24.63
2018-06-30T04:43:08.735Z,33.83
2018-06-30T04:45:36.881Z,22.57
2018-06-30T04:48:05.166Z,32.87
2018-06-30T04:50:33.728Z,28.00
2018-06-30T04:53:01.854Z,27.10
2018-06-30T04:55:30.446Z,24.20
2018-06-30T04:57:58.899Z,30.00
2018-06-30T05:00:27.351Z,32.03
2018-06-30T05:02:55.492Z,26.40
2018-06-30T05:05:24.008Z,28.47
2018-06-30T05:07:53.016Z,30.00
2018-06-30T05:10:21.220Z,28.63
2018-06-30T05:12:49.702Z,27.60
2018-06-30T05:15:18.078Z,27.10
2018-06-30T05:17:46.603Z,29.23
2018-06-30T05:20:15.156Z,30.93
2018-06-30T05:22:43.716Z,33.30
2018-06-30T05:25:12.190Z,26.70
2018-06-30T05:27:40.661Z,27.73
2018-06-30T05:30:09.433Z,27.53
2018-06-30T05:32:38.474Z,26.27
2018-06-30T05:35:06.967Z,27.00
2018-06-30T05:37:35.220Z,23.80
2018-06-30T05:40:04.097Z,26.10
2018-06-30T05:42:32.742Z,21.40
2018-06-30T05:45:01.200Z,27.83
2018-06-30T05:47:29.696Z,21.90
2018-06-30T05:49:57.871Z,27.20
2018-06-30T05:52:26.321Z,24.30
2018-06-30T05:54:54.828Z,25.77
2018-06-30T05:57:23.395Z,24.50
2018-06-30T05:59:51.858Z,24.00
2018-06-30T06:02:20.424Z,24.27
2018-06-30T06:04:48.852Z,22.23
2018-06-30T06:07:17.380Z,19.27
2018-06-30T06:09:46.050Z,25.93
2018-06-30T06:12:14.572Z,21.67
2018-06-30T06:14:43.314Z,21.27
2018-06-30T06:17:11.466Z,18.73
2018-06-30T06:19:39.990Z,22.37
2018-06-30T06:22:08.414Z,23.03
2018-06-30T06:24:36.560Z,28.10
2018-06-30T06:27:04.690Z,20.13
2018-06-30T06:29:33.129Z,24.00
2018-06-30T06:32:01.606Z,18.87
2018-06-30T06:34:29.773Z,19.10
2018-06-30T06:36:58.187Z,17.60
2018-06-30T06:39:26.358Z,18.40
2018-06-30T06:41:54.846Z,19.13
2018-06-30T06:44:23.630Z,19.67
2018-06-30T06:46:51.864Z,22.23
2018-06-30T06:49:20.606Z,21.50
2018-06-30T06:51:49.150Z,21.47
2018-06-30T06:54:17.248Z,22.80
2018-06-30T06:56:45.801Z,23.10
2018-06-30T06:59:14.437Z,27.70
2018-06-30T07:01:42.910Z,26.60
2018-06-30T07:04:11.456Z,25.40
2018-06-30T07:06:40.063Z,31.03
2018-06-30T07:09:09.919Z,20.17
2018-06-30T07:11:39.021Z,26.83
2018-06-30T07:14:07.596Z,23.13
2018-06-30T07:16:36.124Z,28.50
2018-06-30T07:19:04.291Z,24.83
2018-06-30T07:21:32.658Z,26.10
2018-06-30T07:24:01.256Z,27.20
2018-06-30T07:26:29.307Z,27.97
2018-06-30T07:28:58.053Z,26.83
2018-06-30T07:31:26.841Z,25.20
2018-06-30T07:33:55.299Z,33.30
2018-06-30T07:36:23.766Z,27.43
2018-06-30T07:38:52.791Z,29.70
2018-06-30T07:41:21.328Z,30.87
2018-06-30T07:43:49.843Z,30.67
2018-06-30T07:46:17.978Z,30.57
2018-06-30T07:48:46.183Z,35.33
2018-06-30T07:51:14.712Z,28.40
2018-06-30T07:53:43.212Z,30.37
2018-06-30T07:56:12.569Z,28.60
2018-06-30T07:58:41.034Z,34.67
2018-06-30T08:01:09.237Z,29.20
2018-06-30T08:03:37.705Z,26.10
2018-06-30T08:06:05.887Z,33.93
2018-06-30T08:08:34.028Z,27.40
2018-06-30T08:11:02.152Z,27.77
2018-06-30T08:13:30.612Z,27.63
2018-06-30T08:15:59.234Z,28.87
2018-06-30T08:18:27.660Z,34.87
2018-06-30T08:20:56.141Z,31.13
2018-06-30T08:23:24.770Z,24.80
2018-06-30T08:25:52.986Z,28.77
2018-06-30T08:28:21.627Z,29.60
2018-06-30T08:30:49.842Z,29.10
2018-06-30T08:33:17.986Z,26.10
2018-06-30T08:35:46.622Z,25.00
2018-06-30T08:38:15.264Z,23.37
2018-06-30T08:40:43.797Z,27.33
2018-06-30T08:43:12.340Z,22.33
2018-06-30T08:45:40.819Z,20.83
2018-06-30T08:48:09.005Z,20.50
2018-06-30T08:50:37.619Z,18.90
2018-06-30T08:53:05.755Z,23.57
2018-06-30T08:55:34.224Z,21.27
2018-06-30T08:58:02.854Z,20.30
2018-06-30T09:00:31.274Z,20.10
2018-06-30T09:02:59.732Z,22.90
2018-06-30T09:05:28.315Z,23.50
2018-06-30T09:07:56.492Z,22.20
2018-06-30T09:10:25.088Z,22.03
2018-06-30T09:12:54.912Z,24.13
2018-06-30T09:15:23.457Z,24.47
2018-06-30T09:17:51.951Z,25.30
2018-06-30T09:20:21.143Z,21.77
2018-06-30T09:22:51.824Z,19.93
2018-06-30T09:25:20.582Z,21.33
2018-06-30T09:27:49.089Z,21.67
2018-06-30T09:30:17.565Z,19.83
2018-06-30T09:32:46.013Z,21.20
2018-06-30T09:35:15.156Z,20.63
2018-06-30T09:37:43.657Z,19.03
2018-06-30T09:40:11.787Z,17.83
2018-06-30T09:42:39.934Z,20.40
2018-06-30T09:45:08.409Z,20.03
2018-06-30T09:47:36.906Z,17.67
2018-06-30T09:50:05.105Z,18.43
2018-06-30T09:52:33.638Z,19.43
2018-06-30T09:55:01.920Z,18.90
2018-06-30T09:57:31.146Z,18.10
2018-06-30T09:59:59.728Z,16.70
2018-06-30T10:02:28.757Z,20.67
2018-06-30T10:04:57.358Z,16.90
2018-06-30T10:07:26.506Z,13.90
2018-06-30T10:09:55.097Z,15.17
2018-06-30T10:12:23.664Z,13.07
2018-06-30T10:14:51.892Z,16.50
2018-06-30T10:17:20.566Z,10.87
2018-06-30T10:19:49.158Z,9.70
2018-06-30T10:22:17.307Z,9.83
2018-06-30T10:24:46.742Z,8.80
2018-06-30T10:27:15.193Z,9.77
2018-06-30T10:29:44.499Z,11.33
2018-06-30T10:32:13.706Z,10.20
2018-06-30T10:34:42.832Z,9.77
2018-06-30T10:37:12.066Z,11.80
2018-06-30T10:39:41.168Z,11.97
2018-06-30T10:42:09.920Z,11.20
2018-06-30T10:44:39.165Z,12.03
2018-06-30T10:47:08.059Z,9.20
2018-06-30T10:49:36.552Z,11.13
2018-06-30T10:52:05.041Z,9.90
2018-06-30T10:54:33.519Z,10.47
2018-06-30T10:57:02.073Z,13.30
2018-06-30T10:59:31.002Z,11.10
2018-06-30T11:01:59.222Z,11.40
2018-06-30T11:04:27.667Z,20.13
2018-06-30T11:06:56.891Z,11.20
2018-06-30T11:09:26.726Z,13.90
2018-06-30T11:11:54.837Z,9.43
2018-06-30T11:14:22.985Z,9.10
2018-06-30T11:16:52.167Z,8.90
2018-06-30T11:19:21.613Z,9.33
2018-06-30T11:21:50.663Z,15.30
2018-06-30T11:24:18.797Z,9.00
2018-06-30T11:26:47.429Z,11.13
2018-06-30T11:29:16.952Z,9.37
2018-06-30T11:31:45.373Z,11.17
2018-06-30T11:34:14.431Z,8.90
2018-06-30T11:36:42.703Z,13.20
2018-06-30T11:39:13.305Z,12.03
2018-06-30T11:41:42.523Z,8.33
2018-06-30T11:44:11.199Z,8.20
2018-06-30T11:46:40.449Z,8.00
2018-06-30T11:49:09.065Z,11.17
2018-06-30T11:51:38.709Z,10.30
2018-06-30T11:54:07.967Z,8.60
2018-06-30T11:56:36.985Z,9.20
2018-06-30T11:59:05.577Z,7.67
2018-06-30T12:01:34.107Z,12.53
2018-06-30T12:04:02.593Z,7.97
2018-06-30T12:06:31.743Z,9.10
2018-06-30T12:09:00.235Z,15.07
2018-06-30T12:11:28.803Z,8.00
2018-06-30T12:13:57.287Z,7.17
2018-06-30T12:16:25.833Z,8.23
2018-06-30T12:18:53.964Z,11.53
2018-06-30T12:21:23.171Z,6.93
2018-06-30T12:23:51.770Z,7.80
2018-06-30T12:26:20.739Z,8.53
2018-06-30T12:28:49.195Z,11.20
2018-06-30T12:31:17.680Z,8.37
2018-06-30T12:33:46.102Z,8.90
2018-06-30T12:36:14.280Z,9.77
2018-06-30T12:38:42.736Z,8.53
2018-06-30T12:41:11.486Z,7.57
2018-06-30T12:43:40.456Z,8.13
2018-06-30T12:46:09.273Z,7.93
2018-06-30T12:48:37.530Z,11.03
2018-06-30T12:51:07.148Z,8.67
2018-06-30T12:53:35.680Z,9.07
2018-06-30T12:56:04.659Z,11.20
2018-06-30T12:58:33.205Z,11.40
2018-06-30T13:01:01.819Z,7.27
2018-06-30T13:03:31.115Z,7.90
2018-06-30T13:06:01.158Z,9.53
2018-06-30T13:08:29.724Z,12.40
2018-06-30T13:10:57.966Z,10.93
2018-06-30T13:13:27.618Z,8.40
2018-06-30T13:15:55.774Z,7.73
2018-06-30T13:18:24.223Z,7.17
2018-06-30T13:20:52.687Z,8.23
2018-06-30T13:23:21.282Z,6.93
2018-06-30T13:25:50.025Z,8.03
2018-06-30T13:28:19.198Z,8.57
2018-06-30T13:30:47.698Z,12.27
2018-06-30T13:33:16.354Z,7.37
2018-06-30T13:35:46.841Z,9.90
2018-06-30T13:38:15.359Z,9.83
2018-06-30T13:40:43.976Z,7.50
2018-06-30T13:43:13.711Z,10.30
2018-06-30T13:45:42.848Z,6.80
2018-06-30T13:48:11.014Z,6.77
2018-06-30T13:50:39.778Z,8.17
2018-06-30T13:53:08.501Z,10.40
2018-06-30T13:55:36.919Z,7.77
2018-06-30T13:58:05.490Z,9.40
2018-06-30T14:00:34.242Z,6.90
2018-06-30T14:03:02.924Z,7.03
2018-06-30T14:05:32.345Z,7.80
2018-06-30T14:08:00.897Z,10.33
2018-06-30T14:10:29.872Z,7.33
2018-06-30T14:12:58.636Z,8.13
2018-06-30T14:15:26.804Z,7.00
2018-06-30T14:17:55.352Z,10.37
2018-06-30T14:20:25.404Z,6.73
2018-06-30T14:22:53.792Z,13.43
2018-06-30T14:25:22.337Z,6.27
2018-06-30T14:27:51.809Z,6.13
2018-06-30T14:30:20.561Z,6.63
2018-06-30T14:32:49.227Z,6.80
2018-06-30T14:35:18.457Z,6.97
2018-06-30T14:37:47.027Z,9.43
2018-06-30T14:40:16.261Z,6.80
2018-06-30T14:42:45.439Z,8.00
2018-06-30T14:45:15.511Z,7.53
2018-06-30T14:47:44.088Z,15.93
2018-06-30T14:50:13.698Z,5.00
2018-06-30T14:52:43.173Z,5.10
2018-06-30T14:55:11.764Z,10.20
2018-06-30T14:57:40.414Z,4.97
2018-06-30T15:00:10.303Z,5.00
2018-06-30T15:02:39.545Z,7.40
2018-06-30T15:05:09.430Z,4.30
2018-06-30T15:07:37.572Z,5.07
2018-06-30T15:10:06.340Z,5.03
2018-06-30T15:12:35.239Z,9.40
2018-06-30T15:15:04.503Z,9.17
2018-06-30T15:17:32.995Z,4.70
2018-06-30T15:20:01.133Z,4.73
2018-06-30T15:22:29.809Z,4.13
2018-06-30T15:24:58.839Z,4.40
2018-06-30T15:27:27.643Z,4.60
2018-06-30T15:29:56.323Z,4.27
2018-06-30T15:32:25.561Z,6.93
2018-06-30T15:34:54.456Z,4.10
2018-06-30T15:37:23.423Z,16.93
2018-06-30T15:39:51.937Z,8.20
2018-06-30T15:42:20.321Z,3.20
2018-06-30T15:44:49.413Z,3.60
2018-06-30T15:47:18.019Z,3.40
2018-06-30T15:49:46.420Z,7.50
2018-06-30T15:52:15.029Z,7.13
2018-06-30T15:54:44.552Z,3.30
2018-06-30T15:57:14.814Z,3.93
2018-06-30T15:59:43.288Z,3.00
2018-06-30T16:02:11.834Z,2.87
2018-06-30T16:04:40.870Z,3.10
2018-06-30T16:07:12.550Z,4.70
2018-06-30T16:09:41.080Z,6.53
2018-06-30T16:12:09.277Z,2.60
2018-06-30T16:14:38.335Z,2.60
2018-06-30T16:17:06.874Z,3.00
2018-06-30T16:19:35.911Z,4.50
2018-06-30T16:22:04.433Z,3.77
2018-06-30T16:24:33.962Z,2.20
2018-06-30T16:27:04.234Z,2.77
2018-06-30T16:29:32.998Z,2.50
2018-06-30T16:32:02.222Z,1.97
2018-06-30T16:34:30.662Z,2.30
2018-06-30T16:36:59.200Z,2.80
2018-06-30T16:39:27.863Z,2.73
2018-06-30T16:41:57.200Z,2.57
2018-06-30T16:44:26.473Z,4.60
2018-06-30T16:46:55.260Z,3.10
2018-06-30T16:49:23.740Z,6.03
2018-06-30T16:51:52.838Z,3.83
2018-06-30T16:54:21.811Z,3.83
2018-06-30T16:56:50.266Z,2.10
2018-06-30T16:59:18.424Z,2.73
2018-06-30T17:01:46.837Z,4.00
2018-06-30T17:04:14.989Z,4.73
2018-06-30T17:06:43.630Z,6.47
2018-06-30T17:09:13.997Z,4.30
2018-06-30T17:11:42.470Z,6.30
2018-06-30T17:14:11.306Z,3.03
2018-06-30T17:16:39.736Z,2.60
2018-06-30T17:19:07.856Z,3.07
2018-06-30T17:21:36.713Z,3.83
2018-06-30T17:24:06.216Z,4.47
2018-06-30T17:26:34.995Z,3.30
2018-06-30T17:29:03.514Z,2.73
2018-06-30T17:31:32.028Z,9.80
2018-06-30T17:34:00.164Z,4.03
2018-06-30T17:36:28.536Z,3.70
2018-06-30T17:38:57.027Z,2.20
2018-06-30T17:41:25.487Z,2.27
2018-06-30T17:43:54.206Z,2.30
2018-06-30T17:46:22.463Z,3.07
2018-06-30T17:48:50.984Z,3.20
2018-06-30T17:51:19.443Z,2.50
2018-06-30T17:53:47.939Z,2.20
2018-06-30T17:56:16.078Z,1.93
2018-06-30T17:58:44.596Z,3.83
2018-06-30T18:01:13.058Z,3.87
2018-06-30T18:03:41.808Z,2.70
2018-06-30T18:06:09.989Z,3.30
2018-06-30T18:08:38.470Z,11.10
2018-06-30T18:11:06.746Z,2.63
2018-06-30T18:13:35.178Z,2.27
2018-06-30T18:16:03.363Z,1.80
2018-06-30T18:18:31.831Z,2.20
2018-06-30T18:21:00.384Z,2.40
2018-06-30T18:23:28.574Z,2.57
2018-06-30T18:25:57.176Z,5.70
2018-06-30T18:28:25.427Z,4.10
2018-06-30T18:30:54.030Z,2.10
2018-06-30T18:33:22.575Z,3.27
2018-06-30T18:35:51.311Z,2.37
2018-06-30T18:38:19.850Z,4.50
2018-06-30T18:40:48.376Z,2.33
2018-06-30T18:43:18.039Z,2.30
2018-06-30T18:45:46.545Z,4.10
2018-06-30T18:48:14.689Z,1.90
2018-06-30T18:50:42.966Z,3.50
2018-06-30T18:53:11.803Z,8.70
2018-06-30T18:55:40.470Z,2.33
2018-06-30T18:58:10.198Z,2.33
2018-06-30T19:00:38.769Z,2.00
2018-06-30T19:03:07.573Z,3.40
2018-06-30T19:05:35.948Z,2.03
2018-06-30T19:08:05.759Z,4.33
2018-06-30T19:10:34.002Z,2.57
2018-06-30T19:13:04.864Z,1.70
2018-06-30T19:15:33.501Z,1.77
2018-06-30T19:18:02.017Z,2.57
2018-06-30T19:20:30.688Z,1.90
2018-06-30T19:22:59.241Z,2.40
2018-06-30T19:25:27.667Z,2.20
2018-06-30T19:27:55.894Z,1.77
2018-06-30T19:30:24.150Z,2.10
2018-06-30T19:32:52.302Z,2.03
2018-06-30T19:35:20.556Z,1.70
2018-06-30T19:37:48.805Z,2.70
2018-06-30T19:40:16.984Z,2.93
2018-06-30T19:42:45.655Z,3.93
2018-06-30T19:45:14.137Z,1.60
2018-06-30T19:47:42.744Z,2.17
2018-06-30T19:50:11.471Z,1.83
2018-06-30T19:52:39.750Z,1.90
2018-06-30T19:55:07.912Z,1.80
2018-06-30T19:57:36.144Z,5.13
2018-06-30T20:00:04.908Z,1.77
2018-06-30T20:02:33.415Z,1.80
2018-06-30T20:05:01.936Z,3.37
2018-06-30T20:07:34.421Z,2.17
2018-06-30T20:10:03.342Z,1.90
2018-06-30T20:12:32.346Z,2.20
2018-06-30T20:15:00.555Z,1.87
2018-06-30T20:17:29.041Z,3.53
2018-06-30T20:19:57.412Z,2.03
2018-06-30T20:22:25.965Z,1.80
2018-06-30T20:24:54.597Z,2.40
2018-06-30T20:27:23.310Z,3.20
2018-06-30T20:29:51.815Z,1.93
2018-06-30T20:32:20.020Z,1.47
2018-06-30T20:34:48.650Z,1.60
2018-06-30T20:37:18.061Z,1.93
2018-06-30T20:39:46.697Z,4.40
2018-06-30T20:42:14.737Z,2.53
2018-06-30T20:44:42.963Z,7.00
2018-06-30T20:47:12.244Z,4.13
2018-06-30T20:49:40.763Z,3.60
2018-06-30T20:52:09.350Z,2.67
2018-06-30T20:54:37.896Z,4.77
2018-06-30T20:57:06.348Z,2.00
2018-06-30T20:59:34.597Z,2.20
2018-06-30T21:02:04.177Z,3.57
2018-06-30T21:04:32.624Z,2.10
2018-06-30T21:07:00.933Z,8.90
2018-06-30T21:09:29.194Z,2.60
2018-06-30T21:11:57.993Z,2.60
2018-06-30T21:14:26.422Z,3.00
2018-06-30T21:16:55.169Z,1.90
2018-06-30T21:19:23.384Z,2.10
2018-06-30T21:21:52.061Z,2.37
2018-06-30T21:24:21.036Z,2.37
2018-06-30T21:26:49.571Z,2.43
2018-06-30T21:29:18.098Z,5.00
2018-06-30T21:31:46.286Z,6.83
2018-06-30T21:34:14.736Z,5.23
2018-06-30T21:36:43.534Z,2.00
2018-06-30T21:39:12.951Z,3.20
2018-06-30T21:41:41.958Z,2.10
2018-06-30T21:44:11.263Z,2.20
2018-06-30T21:46:39.776Z,2.67
2018-06-30T21:49:07.935Z,2.23
2018-06-30T21:51:36.398Z,2.20
2018-06-30T21:54:04.865Z,2.90
2018-06-30T21:56:33.032Z,2.93
2018-06-30T21:59:01.560Z,1.57
2018-06-30T22:01:29.748Z,2.63
2018-06-30T22:03:58.337Z,2.20
2018-06-30T22:06:26.879Z,3.77
2018-06-30T22:08:55.366Z,4.27
2018-06-30T22:11:23.804Z,4.50
2018-06-30T22:13:51.992Z,7.63
2018-06-30T22:16:20.123Z,2.93
2018-06-30T22:18:48.224Z,2.43
2018-06-30T22:21:16.662Z,2.70
2018-06-30T22:23:45.161Z,4.70
2018-06-30T22:26:13.282Z,4.13
2018-06-30T22:28:41.488Z,2.13
2018-06-30T22:31:10.033Z,3.90
2018-06-30T22:33:38.182Z,2.30
2018-06-30T22:36:06.624Z,2.60
2018-06-30T22:38:35.092Z,2.07
2018-06-30T22:41:03.252Z,3.83
2018-06-30T22:43:31.387Z,2.83
2018-06-30T22:45:59.544Z,2.40
2018-06-30T22:48:27.712Z,2.63
2018-06-30T22:50:56.218Z,3.27
2018-06-30T22:53:24.364Z,3.33
2018-06-30T22:55:52.541Z,2.20
2018-06-30T22:58:21.095Z,2.87
2018-06-30T23:00:49.296Z,2.80
2018-06-30T23:03:17.773Z,2.30
2018-06-30T23:05:46.259Z,3.10
2018-06-30T23:08:14.713Z,4.13
2018-06-30T23:10:42.924Z,2.93
2018-06-30T23:13:11.399Z,4.63
2018-06-30T23:15:40.007Z,4.67
2018-06-30T23:18:08.458Z,7.33
2018-06-30T23:20:36.620Z,2.40
2018-06-30T23:23:12.139Z,2.90
2018-06-30T23:25:41.348Z,2.43
2018-06-30T23:28:09.828Z,2.27
2018-06-30T23:30:38.691Z,2.37
2018-06-30T23:33:07.136Z,2.47
2018-06-30T23:35:35.669Z,2.70
2018-06-30T23:38:04.566Z,2.40
2018-06-30T23:40:32.750Z,2.47
2018-06-30T23:43:00.902Z,5.83
2018-06-30T23:45:29.102Z,3.03
2018-06-30T23:47:57.551Z,2.60
2018-06-30T23:50:25.717Z,2.20
2018-06-30T23:52:54.213Z,2.57
2018-06-30T23:55:22.714Z,2.57
2018-06-30T23:57:50.935Z,3.17
